This is the latest recevied weather packets stored in our database for station/object DG4MND-4. If no packets are shown the sender has not sent any weather packets the latest 10 day(s).
| Time | Temp. | Humidity | Pressure | Rain* | Wind** | Luminosity | Snow |
|---|---|---|---|---|---|---|---|
| 1777750873 | 14.44° C | 64% | 1017.2 hPa | 0 mm | - | - | - |
| 1777750272 | 14.44° C | 62% | 1017.2 hPa | 0 mm | - | - | - |
| 1777749068 | 15.56° C | 59% | 1017.2 hPa | 0 mm | - | - | - |
| 1777748462 | 16.11° C | 56% | 1017.1 hPa | 0 mm | - | - | - |
| 1777747856 | 16.67° C | 54% | 1017 hPa | 0 mm | - | - | - |
| 1777747253 | 17.22° C | 52% | 1016.9 hPa | 0 mm | - | - | - |
| 1777746652 | 18.33° C | 49% | 1016.8 hPa | 0 mm | - | - | - |
| 1777746046 | 19.44° C | 46% | 1016.9 hPa | 0 mm | - | - | - |
| 1777745445 | 21.11° C | 41% | 1016.8 hPa | 0 mm | - | - | - |
| 1777744838 | 21.11° C | 40% | 1016.8 hPa | 0 mm | - | - | - |
| 1777744237 | 21.67° C | 37% | 1016.9 hPa | 0 mm | - | - | - |
| 1777743634 | 22.22° C | 35% | 1016.8 hPa | 0 mm | - | - | - |
| 1777743031 | 22.78° C | 32% | 1016.9 hPa | 0 mm | - | - | - |
| 1777742427 | 22.78° C | 31% | 1016.8 hPa | 0 mm | - | - | - |
| 1777741821 | 22.78° C | 32% | 1017 hPa | 0 mm | - | - | - |
| 1777741221 | 23.33° C | 31% | 1017.1 hPa | 0 mm | - | - | - |
| 1777740674 | 24.44° C | 29% | 1017.2 hPa | 0 mm | - | - | - |
| 1777740071 | 24.44° C | 29% | 1017.3 hPa | 0 mm | - | - | - |
| 1777739467 | 24.44° C | 29% | 1017.3 hPa | 0 mm | - | - | - |
| 1777738864 | 24.44° C | 28% | 1017.5 hPa | 0 mm | - | - | - |
| 1777738263 | 25.56° C | 29% | 1017.5 hPa | 0 mm | - | - | - |
| 1777737657 | 25° C | 28% | 1017.6 hPa | 0 mm | - | - | - |
| 1777737057 | 25° C | 28% | 1017.7 hPa | 0 mm | - | - | - |
| 1777736450 | 26.11° C | 28% | 1017.8 hPa | 0 mm | - | - | - |
| 1777735847 | 26.11° C | 29% | 1017.8 hPa | 0 mm | - | - | - |
* Rain latest hour (hover to see other rain measurements)
** Current wind speed in m/s (hover to see current wind gust speed)